Ever Ursula — 3FCB9 — position and weather

sailwx.info

Track history (hours):
 
Tides and Currents Weather Stations Pressure Air Temp Water Temp Dewpoint Dewpoint Depression Visibility Wind Speed Wind Dir Waves Ship Positions

Ever Ursula

Last reported at 2016-Aug-28 10:20 UTC. Time now 2016-Aug-30 07:28 UTC.
Position N 22°34' E 114°16'.

Type: Cargo ship. MMSI: 357737000.

Date/timePositionNaut miles runAvg speedWind from/ knotsBaromVisibWave heightAir tempDewpointWater temp
2016-Aug-28 10:20N 22°34' E 114°16'0 0.0
2016-Aug-28 05:33N 22°34' E 114°16'0 0.1
2016-Aug-28 04:32N 22°34' E 114°16'0 0.0
2016-Aug-28 01:18N 22°34' E 114°16'0 0.0
2016-Aug-28 00:04N 22°34' E 114°16'0 0.0
2016-Aug-27 23:18N 22°34' E 114°16'0 0.1
2016-Aug-27 22:33N 22°34' E 114°16'0 0.1
2016-Aug-27 21:33N 22°34' E 114°16'0 0.1
2016-Aug-27 20:33N 22°34' E 114°16'0 0.0
2016-Aug-27 19:29N 22°34' E 114°16'0 0.0
2016-Aug-27 18:33N 22°34' E 114°16'0 0.0
2016-Aug-27 17:33N 22°34' E 114°16'0 0.0
2016-Aug-27 16:33N 22°34' E 114°16'0 0.1
2016-Aug-27 15:33N 22°34' E 114°16'0 0.0
2016-Aug-27 14:33N 22°34' E 114°16'0 0.0
2016-Aug-27 13:33N 22°34' E 114°16'0 0.0
2016-Aug-27 11:13N 22°34' E 114°16'20 2.9
2016-Aug-27 04:30N 22°17' E 114°26'7 7.0
2016-Aug-27 03:34N 22°11' E 114°23'30 9.9
2016-Aug-27 00:33N 22°23' E 113°54'4 3.7
2016-Aug-26 23:33N 22°27' E 113°53'0 0.1
2016-Aug-26 22:33N 22°27' E 113°53'0 0.1
2016-Aug-26 21:27N 22°27' E 113°53'0 0.0
2016-Aug-26 20:33N 22°27' E 113°53'0 0.1
2016-Aug-26 19:33N 22°27' E 113°53'0 0.0
2016-Aug-26 18:33N 22°27' E 113°53'0 0.1
2016-Aug-26 17:27N 22°27' E 113°53'0 0.1
2016-Aug-26 16:33N 22°27' E 113°53'0 0.1
2016-Aug-26 15:33N 22°27' E 113°53'0 0.0
2016-Aug-26 14:27N 22°27' E 113°53'2 2.4
2016-Aug-26 13:33N 22°25' E 113°53'9 8.4
2016-Aug-26 12:28N 22°21' E 114°02'23 1.7
2016-Aug-25 22:33N 22°05' E 114°21'14313.0
2016-Aug-25 11:33N 22°48' E 116°48'1413.7
2016-Aug-25 10:33N 22°55' E 117°01'1313.4
2016-Aug-25 09:33N 23°02' E 117°14'1312.5
2016-Aug-25 08:33N 23°09' E 117°25'1511.5
2016-Aug-25 07:14N 23°20' E 117°36'3311.9
2016-Aug-25 04:27N 23°48' E 117°55'4 4.5
2016-Aug-25 03:33N 23°50' E 117°59'2613.0
2016-Aug-25 01:34N 24°08' E 118°20'1414.3
2016-Aug-25 00:33N 24°20' E 118°11'1211.5
2016-Aug-24 23:33N 24°27' E 118°01'0 0.2
2016-Aug-24 22:34N 24°27' E 118°00'0 0.0
2016-Aug-24 21:34N 24°27' E 118°00'0 0.0
2016-Aug-24 20:33N 24°27' E 118°00'0 0.0
2016-Aug-24 19:33N 24°27' E 118°00'0 0.1
2016-Aug-24 18:33N 24°27' E 118°01'0 0.1
2016-Aug-24 17:33N 24°27' E 118°00'0 0.0
2016-Aug-24 16:33N 24°27' E 118°00'0 0.0
2016-Aug-24 15:33N 24°27' E 118°00'0 0.0
2016-Aug-24 14:33N 24°27' E 118°00'0 0.0
2016-Aug-24 13:33N 24°27' E 118°00'2 2.0
2016-Aug-24 12:33N 24°26' E 118°03'9 9.1
2016-Aug-24 11:33N 24°20' E 118°10'8 8.4
2016-Aug-24 10:33N 24°16' E 118°19'3 2.7
2016-Aug-24 09:33N 24°16' E 118°22'4 3.8
2016-Aug-24 08:31N 24°19' E 118°25'0 0.0
2016-Aug-24 07:31N 24°19' E 118°25'0 0.0
2016-Aug-24 06:33N 24°19' E 118°25'0 0.1
2016-Aug-24 04:27N 24°19' E 118°25'0 0.0
2016-Aug-24 03:27N 24°19' E 118°25'0 0.0
2016-Aug-24 02:33N 24°19' E 118°25'0 0.0
2016-Aug-24 01:27N 24°19' E 118°25'0 0.1
2016-Aug-24 00:33N 24°19' E 118°25'0 0.1
2016-Aug-23 23:33N 24°19' E 118°25'0 0.1
2016-Aug-23 22:33N 24°19' E 118°25'0 0.0
2016-Aug-23 21:15N 24°19' E 118°25'0 0.1
2016-Aug-23 20:21N 24°19' E 118°25'0 0.1
2016-Aug-23 19:33N 24°19' E 118°25'0 0.1
2016-Aug-23 18:27N 24°19' E 118°25'0 0.1
2016-Aug-23 17:28N 24°19' E 118°25'0 0.1
2016-Aug-23 16:15N 24°19' E 118°25'0 0.0
2016-Aug-23 15:32N 24°19' E 118°25'0 0.0
2016-Aug-23 14:15N 24°19' E 118°25'0 0.0
2016-Aug-23 13:27N 24°19' E 118°25'1 1.6
2016-Aug-23 12:33N 24°19' E 118°27'1313.2
2016-Aug-23 11:32N 24°21' E 118°41'1313.8
2016-Aug-23 10:33N 24°26' E 118°55'1414.1
2016-Aug-23 09:33N 24°30' E 119°10'1414.2
2016-Aug-23 08:33N 24°36' E 119°24'1414.0
2016-Aug-23 07:33N 24°41' E 119°38'1413.9
2016-Aug-23 06:33N 24°47' E 119°52'  
2016-Aug-18 21:09N 34°06' E 141°03'8518.2
2016-Aug-18 16:29N 34°47' E 142°33'  
Track history (hours):
 
Tides and Currents Weather Stations Pressure Air Temp Water Temp Dewpoint Dewpoint Depression Visibility Wind Speed Wind Dir Waves Ship Positions

Ever Ursula

Last reported at 2016-Aug-28 10:20 UTC. Time now 2016-Aug-30 07:28 UTC.
Position N 22°34' E 114°16'.

Type: Cargo ship. MMSI: 357737000.

Date/timePositionNaut miles runAvg speedWind from/ knotsBaromVisibWave heightAir tempDewpointWater temp
2016-Aug-28 10:20N 22°34' E 114°16'0 0.0
2016-Aug-28 05:33N 22°34' E 114°16'0 0.1
2016-Aug-28 04:32N 22°34' E 114°16'0 0.0
2016-Aug-28 01:18N 22°34' E 114°16'0 0.0
2016-Aug-28 00:04N 22°34' E 114°16'0 0.0
2016-Aug-27 23:18N 22°34' E 114°16'0 0.1
2016-Aug-27 22:33N 22°34' E 114°16'0 0.1
2016-Aug-27 21:33N 22°34' E 114°16'0 0.1
2016-Aug-27 20:33N 22°34' E 114°16'0 0.0
2016-Aug-27 19:29N 22°34' E 114°16'0 0.0
2016-Aug-27 18:33N 22°34' E 114°16'0 0.0
2016-Aug-27 17:33N 22°34' E 114°16'0 0.0
2016-Aug-27 16:33N 22°34' E 114°16'0 0.1
2016-Aug-27 15:33N 22°34' E 114°16'0 0.0
2016-Aug-27 14:33N 22°34' E 114°16'0 0.0
2016-Aug-27 13:33N 22°34' E 114°16'0 0.0
2016-Aug-27 11:13N 22°34' E 114°16'20 2.9
2016-Aug-27 04:30N 22°17' E 114°26'7 7.0
2016-Aug-27 03:34N 22°11' E 114°23'30 9.9
2016-Aug-27 00:33N 22°23' E 113°54'4 3.7
2016-Aug-26 23:33N 22°27' E 113°53'0 0.1
2016-Aug-26 22:33N 22°27' E 113°53'0 0.1
2016-Aug-26 21:27N 22°27' E 113°53'0 0.0
2016-Aug-26 20:33N 22°27' E 113°53'0 0.1
2016-Aug-26 19:33N 22°27' E 113°53'0 0.0
2016-Aug-26 18:33N 22°27' E 113°53'0 0.1
2016-Aug-26 17:27N 22°27' E 113°53'0 0.1
2016-Aug-26 16:33N 22°27' E 113°53'0 0.1
2016-Aug-26 15:33N 22°27' E 113°53'0 0.0
2016-Aug-26 14:27N 22°27' E 113°53'2 2.4
2016-Aug-26 13:33N 22°25' E 113°53'9 8.4
2016-Aug-26 12:28N 22°21' E 114°02'23 1.7
2016-Aug-25 22:33N 22°05' E 114°21'14313.0
2016-Aug-25 11:33N 22°48' E 116°48'1413.7
2016-Aug-25 10:33N 22°55' E 117°01'1313.4
2016-Aug-25 09:33N 23°02' E 117°14'1312.5
2016-Aug-25 08:33N 23°09' E 117°25'1511.5
2016-Aug-25 07:14N 23°20' E 117°36'3311.9
2016-Aug-25 04:27N 23°48' E 117°55'4 4.5
2016-Aug-25 03:33N 23°50' E 117°59'2613.0
2016-Aug-25 01:34N 24°08' E 118°20'1414.3
2016-Aug-25 00:33N 24°20' E 118°11'1211.5
2016-Aug-24 23:33N 24°27' E 118°01'0 0.2
2016-Aug-24 22:34N 24°27' E 118°00'0 0.0
2016-Aug-24 21:34N 24°27' E 118°00'0 0.0
2016-Aug-24 20:33N 24°27' E 118°00'0 0.0
2016-Aug-24 19:33N 24°27' E 118°00'0 0.1
2016-Aug-24 18:33N 24°27' E 118°01'0 0.1
2016-Aug-24 17:33N 24°27' E 118°00'0 0.0
2016-Aug-24 16:33N 24°27' E 118°00'0 0.0
2016-Aug-24 15:33N 24°27' E 118°00'0 0.0
2016-Aug-24 14:33N 24°27' E 118°00'0 0.0
2016-Aug-24 13:33N 24°27' E 118°00'2 2.0
2016-Aug-24 12:33N 24°26' E 118°03'9 9.1
2016-Aug-24 11:33N 24°20' E 118°10'8 8.4
2016-Aug-24 10:33N 24°16' E 118°19'3 2.7
2016-Aug-24 09:33N 24°16' E 118°22'4 3.8
2016-Aug-24 08:31N 24°19' E 118°25'0 0.0
2016-Aug-24 07:31N 24°19' E 118°25'0 0.0
2016-Aug-24 06:33N 24°19' E 118°25'0 0.1
2016-Aug-24 04:27N 24°19' E 118°25'0 0.0
2016-Aug-24 03:27N 24°19' E 118°25'0 0.0
2016-Aug-24 02:33N 24°19' E 118°25'0 0.0
2016-Aug-24 01:27N 24°19' E 118°25'0 0.1
2016-Aug-24 00:33N 24°19' E 118°25'0 0.1
2016-Aug-23 23:33N 24°19' E 118°25'0 0.1
2016-Aug-23 22:33N 24°19' E 118°25'0 0.0
2016-Aug-23 21:15N 24°19' E 118°25'0 0.1
2016-Aug-23 20:21N 24°19' E 118°25'0 0.1
2016-Aug-23 19:33N 24°19' E 118°25'0 0.1
2016-Aug-23 18:27N 24°19' E 118°25'0 0.1
2016-Aug-23 17:28N 24°19' E 118°25'0 0.1
2016-Aug-23 16:15N 24°19' E 118°25'0 0.0
2016-Aug-23 15:32N 24°19' E 118°25'0 0.0
2016-Aug-23 14:15N 24°19' E 118°25'0 0.0
2016-Aug-23 13:27N 24°19' E 118°25'1 1.6
2016-Aug-23 12:33N 24°19' E 118°27'1313.2
2016-Aug-23 11:32N 24°21' E 118°41'1313.8
2016-Aug-23 10:33N 24°26' E 118°55'1414.1
2016-Aug-23 09:33N 24°30' E 119°10'1414.2
2016-Aug-23 08:33N 24°36' E 119°24'1414.0
2016-Aug-23 07:33N 24°41' E 119°38'1413.9
2016-Aug-23 06:33N 24°47' E 119°52'  
2016-Aug-18 21:09N 34°06' E 141°03'8518.2
2016-Aug-18 16:29N 34°47' E 142°33'  

Dump ship's entire track history